Time;durP1;ratioP1;P1;durP2;ratioP2;P2;SDS_P1;SDS_P2;PMS_P1;PMS_P2;Temp;Humidity;BMP_temperature;BMP_pressure;BME280_temperature;BME280_humidity;BME280_pressure;Samples;Min_cycle;Max_cycle;Signal;HPM_P1;HPM_P2
2021/12/31 00:02:03;;;;;;;35.07;19.83;;;7.30;99.90;;;;;;5040021;28;20243;-70
2021/12/31 00:04:51;;;;;;;39.37;22.23;;;7.30;99.90;;;;;;5042347;28;20216;-70
2021/12/31 00:07:40;;;;;;;34.67;20.20;;;7.30;99.90;;;;;;5049463;28;20220;-71
2021/12/31 00:10:29;;;;;;;33.03;19.53;;;7.20;99.90;;;;;;5055161;28;20295;-70
2021/12/31 00:13:19;;;;;;;31.70;19.40;;;7.30;99.90;;;;;;5053538;28;20699;-71
2021/12/31 00:16:07;;;;;;;32.93;19.90;;;7.30;99.90;;;;;;5056428;28;20227;-71
2021/12/31 00:18:56;;;;;;;35.40;20.27;;;7.30;99.90;;;;;;5045017;28;20217;-71
2021/12/31 00:21:48;;;;;;;38.67;20.50;;;7.30;99.90;;;;;;5050543;28;20235;-70
2021/12/31 00:24:36;;;;;;;37.90;20.90;;;7.30;99.90;;;;;;5043632;28;20295;-70
2021/12/31 00:27:25;;;;;;;42.97;20.60;;;7.30;99.90;;;;;;5051850;28;20236;-70
2021/12/31 00:30:15;;;;;;;39.30;21.13;;;7.30;99.90;;;;;;5037115;28;20216;-71
2021/12/31 00:33:04;;;;;;;41.70;21.73;;;7.30;99.90;;;;;;5049000;28;20581;-71
2021/12/31 00:35:53;;;;;;;45.20;22.33;;;7.40;99.90;;;;;;5053847;28;20538;-71
2021/12/31 00:38:42;;;;;;;47.50;23.33;;;7.40;99.90;;;;;;5051600;28;20235;-70
2021/12/31 00:41:30;;;;;;;44.03;23.73;;;7.40;99.90;;;;;;5047203;28;20216;-71
2021/12/31 00:44:20;;;;;;;49.73;26.00;;;7.40;99.90;;;;;;5057253;28;20247;-71
2021/12/31 00:47:10;;;;;;;51.87;26.20;;;7.40;99.90;;;;;;5056563;28;20233;-73
2021/12/31 00:49:59;;;;;;;47.63;25.13;;;7.40;99.90;;;;;;5055980;28;20220;-71
2021/12/31 00:52:48;;;;;;;49.37;24.63;;;7.40;99.90;;;;;;5060834;28;20231;-71
2021/12/31 00:55:37;;;;;;;59.90;25.87;;;7.50;99.90;;;;;;5047788;28;20539;-72
2021/12/31 00:58:25;;;;;;;66.00;25.63;;;7.50;99.90;;;;;;5045209;28;20303;-70
2021/12/31 01:01:18;;;;;;;62.33;25.57;;;7.50;99.90;;;;;;5045026;28;20232;-70
2021/12/31 01:04:08;;;;;;;56.70;25.70;;;7.50;99.90;;;;;;5039194;28;20223;-70
2021/12/31 01:06:57;;;;;;;54.50;24.90;;;7.50;99.90;;;;;;5056853;28;20220;-70
2021/12/31 01:09:46;;;;;;;67.77;27.37;;;7.50;99.90;;;;;;5056072;28;20231;-71
2021/12/31 01:12:35;;;;;;;62.43;26.13;;;7.50;99.90;;;;;;5061414;28;20220;-68
2021/12/31 01:15:34;;;;;;;65.30;25.03;;;7.40;99.90;;;;;;5060031;28;20252;-68
2021/12/31 01:19:43;;;;;;;58.27;25.10;;;7.40;99.90;;;;;;5054116;28;20966;-68
2021/12/31 01:21:33;;;;;;;68.60;25.90;;;7.40;99.90;;;;;;5046963;28;20216;-70
2021/12/31 01:24:25;;;;;;;64.47;25.83;;;7.40;99.90;;;;;;5059443;28;20219;-70
2021/12/31 01:27:15;;;;;;;68.93;26.93;;;7.40;99.90;;;;;;5039409;28;20338;-71
2021/12/31 01:30:06;;;;;;;83.63;26.40;;;7.40;99.90;;;;;;5042302;28;20305;-70
2021/12/31 01:32:56;;;;;;;88.77;28.97;;;7.30;99.90;;;;;;5055659;28;20227;-71
2021/12/31 01:35:44;;;;;;;65.63;26.07;;;7.30;99.90;;;;;;5040041;28;20228;-71
2021/12/31 01:38:35;;;;;;;58.43;27.07;;;7.30;99.90;;;;;;5044742;28;20231;-70
2021/12/31 01:41:24;;;;;;;76.80;27.93;;;7.30;99.90;;;;;;5038486;28;20223;-72
2021/12/31 01:44:13;;;;;;;59.43;25.80;;;7.30;99.90;;;;;;5037950;28;20785;-70
2021/12/31 01:47:05;;;;;;;89.37;27.93;;;7.30;99.90;;;;;;5041045;28;20234;-70
2021/12/31 01:49:58;;;;;;;71.67;26.73;;;7.40;99.90;;;;;;5056624;28;20231;-71
2021/12/31 01:52:47;;;;;;;72.10;27.07;;;7.30;99.90;;;;;;5043396;28;20213;-70
2021/12/31 01:55:37;;;;;;;71.73;27.43;;;7.30;99.90;;;;;;5042861;28;20232;-69
2021/12/31 01:58:27;;;;;;;67.43;25.97;;;7.30;99.90;;;;;;5054012;28;20231;-71
2021/12/31 02:01:16;;;;;;;84.53;27.47;;;7.30;99.90;;;;;;5056072;28;20268;-72
2021/12/31 02:04:06;;;;;;;78.30;26.87;;;7.30;99.90;;;;;;5054398;28;20232;-71
2021/12/31 02:06:55;;;;;;;87.67;28.37;;;7.30;99.90;;;;;;5044620;28;20228;-70
2021/12/31 02:09:48;;;;;;;65.10;25.40;;;7.30;99.90;;;;;;5039469;28;20318;-69
2021/12/31 02:12:42;;;;;;;94.00;27.30;;;7.30;99.90;;;;;;5044107;28;20236;-69
2021/12/31 02:15:31;;;;;;;68.20;25.00;;;7.30;99.90;;;;;;5045991;28;20266;-70
2021/12/31 02:18:20;;;;;;;62.83;24.40;;;7.30;99.90;;;;;;5054030;28;20227;-69
2021/12/31 02:21:11;;;;;;;70.63;26.40;;;7.30;99.90;;;;;;5042686;28;20322;-70
2021/12/31 02:24:05;;;;;;;85.43;26.97;;;7.40;99.90;;;;;;5053780;28;20320;-70
2021/12/31 02:26:54;;;;;;;61.90;25.93;;;7.40;99.90;;;;;;5058702;28;21069;-68
2021/12/31 02:29:42;;;;;;;82.13;26.97;;;7.40;99.90;;;;;;5058815;28;20262;-70
2021/12/31 02:32:32;;;;;;;75.20;25.50;;;7.40;99.90;;;;;;5057230;28;20951;-70
2021/12/31 02:35:21;;;;;;;76.47;24.73;;;7.30;99.90;;;;;;5053286;28;20223;-69
2021/12/31 02:38:11;;;;;;;71.07;23.97;;;7.40;99.90;;;;;;5058076;28;20216;-72
2021/12/31 02:41:00;;;;;;;67.37;22.93;;;7.40;99.90;;;;;;5051822;28;20225;-70
2021/12/31 02:43:49;;;;;;;61.97;21.77;;;7.40;99.90;;;;;;5058673;28;20223;-71
2021/12/31 02:46:37;;;;;;;51.37;21.90;;;7.40;99.90;;;;;;5042395;28;20231;-70
2021/12/31 02:49:29;;;;;;;57.57;21.87;;;7.50;99.90;;;;;;5040525;28;20225;-68
2021/12/31 02:52:18;;;;;;;65.37;22.37;;;7.50;99.90;;;;;;5056445;28;20216;-68
2021/12/31 02:55:11;;;;;;;66.70;21.90;;;7.40;99.90;;;;;;5045586;28;20228;-70
2021/12/31 02:58:00;;;;;;;78.83;22.40;;;7.50;99.90;;;;;;5040549;28;20826;-69
2021/12/31 03:00:49;;;;;;;71.40;22.90;;;7.50;99.90;;;;;;5057160;28;20228;-70
2021/12/31 03:03:38;;;;;;;78.90;22.20;;;7.50;99.90;;;;;;5045292;28;20692;-69
2021/12/31 03:06:29;;;;;;;98.50;22.53;;;7.50;99.90;;;;;;5057528;28;20227;-70
2021/12/31 03:09:22;;;;;;;63.30;20.67;;;7.60;99.90;;;;;;5042306;28;20581;-68
2021/12/31 03:12:13;;;;;;;84.77;21.87;;;7.60;99.90;;;;;;5054085;28;20225;-69
2021/12/31 03:15:02;;;;;;;64.80;20.70;;;7.70;99.90;;;;;;5054364;28;20221;-71
2021/12/31 03:17:53;;;;;;;71.17;22.13;;;7.60;99.90;;;;;;5045080;28;20712;-69
2021/12/31 03:20:47;;;;;;;75.83;21.80;;;7.60;99.90;;;;;;5053458;28;20215;-68
2021/12/31 03:23:36;;;;;;;58.60;20.80;;;7.70;99.90;;;;;;5057086;28;20907;-68
2021/12/31 03:26:25;;;;;;;58.97;20.50;;;7.70;99.90;;;;;;5055875;28;20290;-66
2021/12/31 03:29:15;;;;;;;97.60;22.47;;;7.70;99.90;;;;;;5060878;28;20233;-68
2021/12/31 03:32:04;;;;;;;96.40;22.20;;;7.70;99.90;;;;;;5054375;28;20220;-69
2021/12/31 03:34:53;;;;;;;70.20;20.93;;;7.70;99.90;;;;;;5041611;28;20235;-70
2021/12/31 03:37:41;;;;;;;70.20;22.53;;;7.70;99.90;;;;;;5054790;28;20216;-70
2021/12/31 03:40:30;;;;;;;60.10;21.83;;;7.70;99.90;;;;;;5057636;28;20221;-70
2021/12/31 03:43:19;;;;;;;63.53;22.70;;;7.70;99.90;;;;;;5058031;28;20700;-69
2021/12/31 03:46:10;;;;;;;85.97;24.07;;;7.70;99.90;;;;;;5056952;28;20228;-69
2021/12/31 03:49:00;;;;;;;86.83;25.17;;;7.80;99.90;;;;;;5054338;28;20255;-69
2021/12/31 03:51:48;;;;;;;70.60;23.13;;;7.80;99.90;;;;;;5041701;28;20208;-70
2021/12/31 03:54:37;;;;;;;65.27;24.03;;;7.80;99.90;;;;;;5056830;28;20220;-70
2021/12/31 03:57:25;;;;;;;113.50;25.37;;;7.80;99.90;;;;;;5043846;28;20227;-69
2021/12/31 04:00:15;;;;;;;58.70;22.13;;;7.80;99.90;;;;;;5061331;28;20222;-70
2021/12/31 04:03:09;;;;;;;84.93;23.13;;;7.80;99.90;;;;;;5045787;28;20227;-69
2021/12/31 04:05:58;;;;;;;65.13;21.07;;;7.80;99.90;;;;;;5043248;28;20722;-72
2021/12/31 04:08:46;;;;;;;52.23;19.77;;;7.80;99.90;;;;;;5057501;28;20225;-72
2021/12/31 04:11:35;;;;;;;72.83;22.30;;;7.80;99.90;;;;;;5058409;28;20228;-69
2021/12/31 04:14:23;;;;;;;57.33;20.37;;;7.90;99.90;;;;;;5048324;28;20368;-70
2021/12/31 04:17:12;;;;;;;55.10;19.70;;;7.90;99.90;;;;;;5046715;28;20229;-72
2021/12/31 04:20:02;;;;;;;63.23;21.63;;;7.90;99.90;;;;;;5044431;28;20220;-68
2021/12/31 04:22:54;;;;;;;49.50;21.10;;;7.90;99.90;;;;;;5052607;28;20218;-71
2021/12/31 04:25:42;;;;;;;49.50;20.07;;;7.90;99.90;;;;;;5043486;28;20232;-71
2021/12/31 04:28:31;;;;;;;56.90;20.50;;;7.90;99.90;;;;;;5045497;28;20592;-72
2021/12/31 04:31:19;;;;;;;57.67;20.20;;;8.00;99.90;;;;;;5050050;28;20312;-69
2021/12/31 04:34:08;;;;;;;49.63;19.43;;;8.00;99.90;;;;;;5061206;28;20307;-69
2021/12/31 04:36:59;;;;;;;55.47;19.63;;;8.00;99.90;;;;;;5057477;28;20253;-69
2021/12/31 04:39:47;;;;;;;58.30;19.73;;;8.00;99.90;;;;;;5047803;28;20224;-68
2021/12/31 04:42:36;;;;;;;60.87;18.33;;;8.00;99.90;;;;;;5060809;28;20225;-70
2021/12/31 04:45:25;;;;;;;44.33;17.70;;;8.00;99.90;;;;;;5064492;28;20229;-69
2021/12/31 04:48:14;;;;;;;43.03;16.37;;;8.10;99.90;;;;;;5045185;28;20214;-68
2021/12/31 04:51:03;;;;;;;50.17;18.47;;;8.20;99.90;;;;;;5056799;28;20216;-70
2021/12/31 04:53:53;;;;;;;48.83;16.77;;;8.10;99.90;;;;;;5046967;28;20233;-69
2021/12/31 04:56:42;;;;;;;49.83;17.07;;;8.30;99.90;;;;;;5060406;28;20220;-69
2021/12/31 04:59:31;;;;;;;50.90;17.00;;;8.30;99.90;;;;;;5061515;28;21017;-69
2021/12/31 05:02:20;;;;;;;55.80;17.53;;;8.30;99.90;;;;;;5060585;28;20221;-69
2021/12/31 05:05:09;;;;;;;58.30;17.67;;;8.30;99.90;;;;;;5058579;28;20231;-70
2021/12/31 05:07:58;;;;;;;68.37;18.43;;;8.30;99.90;;;;;;5047313;28;20226;-69
2021/12/31 05:10:48;;;;;;;47.00;16.10;;;8.30;99.90;;;;;;5041568;28;20236;-69
2021/12/31 05:13:37;;;;;;;60.23;17.27;;;8.40;99.90;;;;;;5054566;28;20609;-69
2021/12/31 05:16:25;;;;;;;76.10;18.37;;;8.40;99.90;;;;;;5060778;28;20218;-67
2021/12/31 05:19:14;;;;;;;50.03;17.40;;;8.50;99.90;;;;;;5045953;28;20221;-68
2021/12/31 05:22:03;;;;;;;53.90;17.30;;;8.50;99.90;;;;;;5046147;28;20221;-69
2021/12/31 05:24:52;;;;;;;59.87;19.67;;;8.50;99.90;;;;;;5055239;28;20222;-69
2021/12/31 05:27:42;;;;;;;58.93;18.77;;;8.60;99.90;;;;;;5058098;28;20220;-69
2021/12/31 05:30:30;;;;;;;68.83;19.53;;;8.60;99.90;;;;;;5061066;28;20221;-69
2021/12/31 05:33:19;;;;;;;62.63;19.67;;;8.50;99.90;;;;;;5062822;28;20220;-69
2021/12/31 05:36:07;;;;;;;70.07;19.03;;;8.50;99.90;;;;;;5057189;28;20882;-71
2021/12/31 05:38:56;;;;;;;53.07;18.80;;;8.60;99.90;;;;;;5054750;28;20220;-70
2021/12/31 05:41:45;;;;;;;60.80;19.00;;;8.60;99.90;;;;;;5044922;28;20756;-70
2021/12/31 05:44:35;;;;;;;67.53;19.47;;;8.60;99.90;;;;;;5054521;28;20226;-69
2021/12/31 05:47:24;;;;;;;56.70;19.20;;;8.70;99.90;;;;;;5058933;28;20218;-70
2021/12/31 05:50:27;;;;;;;55.73;19.47;;;8.70;99.90;;;;;;5056815;28;20218;-70
2021/12/31 05:53:16;;;;;;;47.93;18.17;;;8.70;99.90;;;;;;5045474;28;20228;-70
2021/12/31 05:56:05;;;;;;;56.80;19.37;;;8.70;99.90;;;;;;5054107;28;20242;-69
2021/12/31 05:58:54;;;;;;;61.47;20.30;;;8.70;99.90;;;;;;5055381;28;20525;-70
2021/12/31 06:01:44;;;;;;;72.83;22.17;;;8.70;99.90;;;;;;5031401;28;20239;-71
2021/12/31 06:04:33;;;;;;;77.97;21.37;;;8.80;99.90;;;;;;5041051;28;20290;-69
2021/12/31 06:07:21;;;;;;;68.17;22.07;;;8.80;99.90;;;;;;5043185;28;20328;-70
2021/12/31 06:10:10;;;;;;;67.13;21.83;;;8.80;99.90;;;;;;5040981;28;20728;-71
2021/12/31 06:13:01;;;;;;;63.10;20.07;;;8.90;99.90;;;;;;5040959;28;20248;-69
2021/12/31 06:15:56;;;;;;;52.07;19.50;;;8.90;99.90;;;;;;5058638;28;20212;-69
2021/12/31 06:18:46;;;;;;;58.13;19.47;;;8.90;99.90;;;;;;5055019;28;20258;-69
2021/12/31 06:21:35;;;;;;;45.97;18.13;;;8.90;99.90;;;;;;5057578;28;20286;-69
2021/12/31 06:24:24;;;;;;;53.17;19.70;;;8.90;99.90;;;;;;5043104;28;20223;-69
2021/12/31 06:27:13;;;;;;;61.53;19.77;;;8.90;99.90;;;;;;5058633;28;20297;-70
2021/12/31 06:30:02;;;;;;;46.93;17.23;;;8.80;99.90;;;;;;5055154;28;20239;-69
2021/12/31 06:32:51;;;;;;;43.40;15.83;;;8.90;99.90;;;;;;5043359;28;20218;-69
2021/12/31 06:35:41;;;;;;;47.53;16.83;;;9.00;99.90;;;;;;5057761;28;20231;-70
2021/12/31 06:38:30;;;;;;;47.93;15.93;;;9.00;99.90;;;;;;5057082;28;20238;-70
2021/12/31 06:41:20;;;;;;;42.90;15.53;;;9.00;99.90;;;;;;5055806;28;20218;-69
2021/12/31 06:44:10;;;;;;;43.43;16.37;;;9.00;99.90;;;;;;5051792;28;20746;-70
2021/12/31 06:46:58;;;;;;;41.83;16.17;;;9.00;99.90;;;;;;5040940;28;20224;-72
2021/12/31 06:49:47;;;;;;;46.60;16.47;;;9.00;99.90;;;;;;5046595;28;20236;-71
2021/12/31 06:52:39;;;;;;;44.50;16.47;;;9.00;99.90;;;;;;5056943;28;20224;-70
2021/12/31 06:55:27;;;;;;;41.53;14.80;;;9.00;99.90;;;;;;5034095;28;20530;-71
2021/12/31 06:58:16;;;;;;;40.03;14.37;;;9.00;99.90;;;;;;5043515;28;20231;-70
2021/12/31 07:01:04;;;;;;;30.20;13.10;;;8.90;99.90;;;;;;5047852;28;20264;-71
2021/12/31 07:03:53;;;;;;;32.93;13.23;;;9.00;99.90;;;;;;5056993;28;20671;-69
2021/12/31 07:06:42;;;;;;;30.63;12.77;;;9.00;99.90;;;;;;5053649;28;20230;-69
2021/12/31 07:09:32;;;;;;;29.87;12.27;;;9.00;99.90;;;;;;5039571;28;20829;-71
2021/12/31 07:12:21;;;;;;;24.37;11.90;;;9.00;99.90;;;;;;5054791;28;20237;-70
2021/12/31 07:15:10;;;;;;;21.53;10.63;;;9.10;99.90;;;;;;5041472;28;20238;-71
2021/12/31 07:17:58;;;;;;;30.07;11.70;;;9.10;99.90;;;;;;5042308;28;20223;-69
2021/12/31 07:20:48;;;;;;;26.17;12.37;;;9.10;99.90;;;;;;5040284;28;20229;-72
2021/12/31 07:23:36;;;;;;;32.40;12.33;;;9.10;99.90;;;;;;5054591;28;20221;-71
2021/12/31 07:26:26;;;;;;;24.70;11.80;;;9.10;99.90;;;;;;5053813;28;20224;-71
2021/12/31 07:29:15;;;;;;;28.27;11.77;;;9.10;99.90;;;;;;5041962;28;20309;-71
2021/12/31 07:32:04;;;;;;;30.20;11.80;;;9.10;99.90;;;;;;5053548;28;20810;-70
2021/12/31 07:34:53;;;;;;;33.00;12.27;;;9.20;99.90;;;;;;5046000;28;20233;-65
2021/12/31 07:37:42;;;;;;;33.13;12.83;;;9.20;99.90;;;;;;5058933;28;21004;-70
2021/12/31 07:40:41;;;;;;;31.03;12.10;;;9.20;99.90;;;;;;5046093;28;20219;-69
2021/12/31 07:43:32;;;;;;;29.33;12.40;;;9.20;99.90;;;;;;5040916;28;20250;-73
2021/12/31 07:46:21;;;;;;;37.20;13.07;;;9.20;99.90;;;;;;5050966;28;20224;-72
2021/12/31 07:49:09;;;;;;;35.30;13.27;;;9.20;99.90;;;;;;5052397;28;20234;-72
2021/12/31 07:51:58;;;;;;;36.60;14.50;;;9.20;99.90;;;;;;5041523;28;20388;-73
2021/12/31 07:54:46;;;;;;;32.47;13.00;;;9.20;99.90;;;;;;5055894;28;20234;-72
2021/12/31 07:57:35;;;;;;;29.30;12.30;;;9.20;99.90;;;;;;5053977;28;20218;-72
2021/12/31 08:00:25;;;;;;;27.80;11.70;;;9.30;99.90;;;;;;5055107;28;20226;-73
2021/12/31 08:03:15;;;;;;;27.83;10.93;;;9.30;99.90;;;;;;5049596;28;20271;-72
2021/12/31 08:06:04;;;;;;;24.70;10.67;;;9.30;99.90;;;;;;5060006;28;20601;-75
2021/12/31 08:08:52;;;;;;;29.43;11.00;;;9.30;99.90;;;;;;5058726;28;20219;-74
2021/12/31 08:11:41;;;;;;;23.73;10.40;;;9.30;99.90;;;;;;5056063;28;20268;-72
2021/12/31 08:14:30;;;;;;;20.92;9.88;;;9.40;99.90;;;;;;5056978;28;20332;-71
2021/12/31 08:17:20;;;;;;;21.70;9.47;;;9.40;99.90;;;;;;5045790;28;20242;-72
2021/12/31 08:20:10;;;;;;;20.90;9.20;;;9.40;99.90;;;;;;5058740;28;20227;-71
2021/12/31 08:23:06;;;;;;;18.60;8.70;;;9.40;99.90;;;;;;5062803;28;20230;-71
2021/12/31 08:25:55;;;;;;;19.20;8.85;;;9.40;99.90;;;;;;5044685;28;20235;-73
2021/12/31 08:28:43;;;;;;;17.00;8.93;;;9.40;99.90;;;;;;5050353;28;20219;-71
2021/12/31 08:31:32;;;;;;;14.27;8.13;;;9.50;99.90;;;;;;5056363;28;20245;-72
2021/12/31 08:34:22;;;;;;;14.30;7.70;;;9.50;99.90;;;;;;5061250;28;20587;-70
2021/12/31 08:37:11;;;;;;;15.13;7.57;;;9.40;99.90;;;;;;5048584;28;20227;-69
2021/12/31 08:40:00;;;;;;;19.02;8.10;;;9.40;99.90;;;;;;5058224;28;20246;-71
2021/12/31 08:42:49;;;;;;;14.90;7.28;;;9.50;99.90;;;;;;5039574;28;20676;-70
2021/12/31 08:45:38;;;;;;;12.27;7.13;;;9.50;99.90;;;;;;5054103;28;20721;-71
2021/12/31 08:48:27;;;;;;;14.63;7.33;;;9.50;99.90;;;;;;5053589;28;20237;-70
2021/12/31 08:51:17;;;;;;;15.03;6.70;;;9.50;99.90;;;;;;5056458;28;20263;-70
2021/12/31 08:54:11;;;;;;;16.90;7.43;;;9.60;99.90;;;;;;5056320;28;20237;-67
2021/12/31 08:57:00;;;;;;;12.88;6.63;;;9.50;99.90;;;;;;5047789;28;20227;-70
2021/12/31 08:59:48;;;;;;;16.73;7.40;;;9.60;99.90;;;;;;5043351;28;20961;-69
2021/12/31 09:02:39;;;;;;;14.37;7.23;;;9.50;99.90;;;;;;5058746;28;20737;-71
2021/12/31 09:05:30;;;;;;;11.77;6.60;;;9.50;99.90;;;;;;5058543;28;20241;-69
2021/12/31 09:08:20;;;;;;;14.98;7.60;;;9.60;99.90;;;;;;5042260;28;20307;-71
2021/12/31 09:11:08;;;;;;;13.63;7.63;;;9.60;99.90;;;;;;5057989;28;20223;-73
2021/12/31 09:13:58;;;;;;;17.77;8.17;;;9.60;99.90;;;;;;5036881;28;20219;-68
2021/12/31 09:16:47;;;;;;;14.77;7.83;;;9.60;99.90;;;;;;5055946;28;20234;-70
2021/12/31 09:19:36;;;;;;;15.43;8.70;;;9.70;99.90;;;;;;5042312;28;20725;-70
2021/12/31 09:22:25;;;;;;;15.83;8.43;;;9.70;99.90;;;;;;5035976;28;20711;-68
2021/12/31 09:25:18;;;;;;;13.77;8.80;;;9.70;99.90;;;;;;5037724;28;20220;-68
2021/12/31 09:28:06;;;;;;;15.80;8.63;;;9.70;99.90;;;;;;5042078;28;20216;-68
2021/12/31 09:31:00;;;;;;;14.95;8.45;;;9.70;99.90;;;;;;5050111;28;20452;-70
2021/12/31 09:33:49;;;;;;;14.65;8.25;;;9.70;99.90;;;;;;5053946;28;20227;-67
2021/12/31 09:36:38;;;;;;;13.02;7.72;;;9.70;99.90;;;;;;5051301;28;20242;-69
2021/12/31 09:39:26;;;;;;;16.23;8.25;;;9.80;99.90;;;;;;5041995;28;20292;-68
2021/12/31 09:42:16;;;;;;;17.48;7.95;;;9.80;99.90;;;;;;5055460;28;20243;-68
2021/12/31 09:45:06;;;;;;;12.90;7.40;;;9.70;99.90;;;;;;5061506;28;20929;-68
2021/12/31 09:47:58;;;;;;;14.07;7.45;;;9.80;99.90;;;;;;5054791;28;20854;-69
2021/12/31 09:50:49;;;;;;;15.53;8.17;;;9.80;99.90;;;;;;5041576;28;20340;-71
2021/12/31 09:53:37;;;;;;;14.65;8.63;;;9.80;99.90;;;;;;5031246;28;20327;-69
2021/12/31 09:56:26;;;;;;;14.68;8.30;;;9.80;99.90;;;;;;5026547;28;20280;-67
2021/12/31 09:59:16;;;;;;;11.95;7.63;;;9.90;99.90;;;;;;5023525;28;20216;-70
2021/12/31 10:02:05;;;;;;;15.30;8.05;;;9.80;99.90;;;;;;5023036;28;20224;-68
2021/12/31 10:04:55;;;;;;;15.52;8.50;;;9.90;99.90;;;;;;5030302;28;20853;-69
2021/12/31 10:07:44;;;;;;;14.45;8.43;;;9.80;99.90;;;;;;5035995;28;20220;-70
2021/12/31 10:10:33;;;;;;;13.60;9.32;;;9.90;99.90;;;;;;5025644;28;20673;-69
2021/12/31 10:13:24;;;;;;;15.48;9.07;;;10.00;99.90;;;;;;5030168;28;20222;-70
2021/12/31 10:16:25;;;;;;;16.83;9.73;;;10.00;99.90;;;;;;5018747;28;20244;-70
2021/12/31 10:19:16;;;;;;;18.65;10.23;;;9.90;99.90;;;;;;5023857;28;20980;-70
2021/12/31 10:22:17;;;;;;;15.50;10.25;;;9.90;99.90;;;;;;5034284;28;20236;-70
2021/12/31 10:25:17;;;;;;;17.27;11.63;;;10.00;99.90;;;;;;5032703;28;20225;-69
2021/12/31 10:28:10;;;;;;;19.23;11.37;;;10.00;99.90;;;;;;5040544;28;20224;-68
2021/12/31 10:31:10;;;;;;;20.23;12.88;;;10.10;99.90;;;;;;5017035;28;20233;-69
2021/12/31 10:34:00;;;;;;;19.57;12.30;;;10.10;99.90;;;;;;5032792;28;20224;-69
2021/12/31 10:36:49;;;;;;;19.42;13.10;;;10.10;99.90;;;;;;5034236;28;20217;-67
2021/12/31 10:39:39;;;;;;;21.75;13.02;;;10.00;99.90;;;;;;5034187;28;20586;-69
2021/12/31 10:42:29;;;;;;;19.60;12.75;;;10.10;99.90;;;;;;5036434;28;20225;-69
2021/12/31 10:45:18;;;;;;;20.27;13.63;;;10.10;99.90;;;;;;5036995;28;20221;-69
2021/12/31 10:48:08;;;;;;;19.20;13.43;;;10.10;99.90;;;;;;5022286;28;20248;-67
2021/12/31 10:50:58;;;;;;;26.63;18.08;;;10.10;99.90;;;;;;5035671;28;20312;-69
2021/12/31 10:53:52;;;;;;;26.85;20.52;;;10.10;99.90;;;;;;5041684;28;20875;-68
2021/12/31 10:56:41;;;;;;;19.33;13.95;;;10.20;99.90;;;;;;5051583;28;20272;-69
2021/12/31 10:59:37;;;;;;;24.35;16.35;;;10.10;99.90;;;;;;5026994;28;20377;-68
2021/12/31 11:02:26;;;;;;;24.38;15.80;;;10.20;99.90;;;;;;5039222;28;20712;-70
2021/12/31 11:05:17;;;;;;;22.23;15.85;;;10.20;99.90;;;;;;5042449;28;20224;-71
2021/12/31 11:08:13;;;;;;;25.33;16.83;;;10.20;99.90;;;;;;5055878;28;20228;-70
2021/12/31 11:11:02;;;;;;;25.92;17.00;;;10.30;99.90;;;;;;5044210;28;20232;-72
2021/12/31 11:13:56;;;;;;;30.70;18.15;;;10.30;99.90;;;;;;5053426;28;20211;-71
2021/12/31 11:16:45;;;;;;;29.10;18.27;;;10.30;99.90;;;;;;5051335;28;20221;-70
2021/12/31 11:19:39;;;;;;;26.02;18.45;;;10.30;99.90;;;;;;5031004;28;20243;-71
2021/12/31 11:22:30;;;;;;;29.85;18.88;;;10.30;99.90;;;;;;5041328;28;20297;-70
2021/12/31 11:25:30;;;;;;;28.58;19.08;;;10.30;99.90;;;;;;5042555;28;20216;-70
2021/12/31 11:28:28;;;;;;;30.65;18.75;;;10.40;99.90;;;;;;5039028;28;20220;-69
2021/12/31 11:31:24;;;;;;;25.30;17.70;;;10.40;99.90;;;;;;5054788;28;20228;-69
2021/12/31 11:34:16;;;;;;;30.83;19.50;;;10.40;99.90;;;;;;5052679;28;20227;-70
2021/12/31 11:37:08;;;;;;;29.10;18.83;;;10.50;99.90;;;;;;5049536;28;20258;-69
2021/12/31 11:40:27;;;;;;;29.83;18.15;;;10.40;99.90;;;;;;5046252;28;20208;-69
2021/12/31 11:43:24;;;;;;;34.03;18.40;;;10.50;99.90;;;;;;5047657;28;20220;-69
2021/12/31 11:46:44;;;;;;;29.02;18.90;;;10.50;99.90;;;;;;5054539;28;20235;-70
2021/12/31 11:49:34;;;;;;;25.00;17.83;;;10.60;99.90;;;;;;5046030;28;20238;-69
2021/12/31 11:52:24;;;;;;;26.15;17.02;;;10.60;99.90;;;;;;5045333;28;20233;-70
2021/12/31 11:55:20;;;;;;;26.27;18.30;;;10.60;99.90;;;;;;5047588;28;20216;-67
2021/12/31 11:58:38;;;;;;;32.08;18.63;;;10.60;99.90;;;;;;5040072;28;20224;-67
2021/12/31 12:01:40;;;;;;;28.20;18.17;;;10.50;99.90;;;;;;5047899;28;20217;-69
2021/12/31 12:04:31;;;;;;;26.55;17.92;;;10.50;99.90;;;;;;5045777;28;20903;-68
2021/12/31 12:07:35;;;;;;;29.42;18.48;;;10.50;99.90;;;;;;5026382;28;20301;-71
2021/12/31 12:10:41;;;;;;;28.92;19.23;;;10.50;99.90;;;;;;5038060;28;20235;-69
2021/12/31 12:13:29;;;;;;;30.50;18.65;;;10.60;99.90;;;;;;5049746;28;20267;-70
2021/12/31 12:16:51;;;;;;;29.05;20.27;;;10.60;99.90;;;;;;5030809;28;20228;-69
2021/12/31 12:20:09;;;;;;;29.63;19.75;;;10.60;99.90;;;;;;5039282;28;20228;-70
2021/12/31 12:22:57;;;;;;;29.60;20.55;;;10.60;99.90;;;;;;5031455;28;20232;-69
2021/12/31 12:25:46;;;;;;;30.98;20.60;;;10.60;99.90;;;;;;5047649;28;20234;-69
2021/12/31 12:28:35;;;;;;;35.80;21.45;;;10.60;99.90;;;;;;5047131;28;20382;-69
2021/12/31 12:31:33;;;;;;;33.13;22.20;;;10.60;99.90;;;;;;5046542;28;20752;-71
2021/12/31 12:34:29;;;;;;;34.03;22.70;;;10.70;99.90;;;;;;5024497;28;20303;-70
2021/12/31 12:37:27;;;;;;;34.15;21.75;;;10.70;99.90;;;;;;5037484;28;20220;-70
2021/12/31 12:40:16;;;;;;;32.63;22.20;;;10.70;99.90;;;;;;5051159;28;20229;-70
2021/12/31 12:43:08;;;;;;;31.00;21.55;;;10.70;99.90;;;;;;5049375;28;20232;-70
2021/12/31 12:45:59;;;;;;;31.98;21.88;;;10.70;99.90;;;;;;5040467;28;20228;-71
2021/12/31 12:48:50;;;;;;;32.42;22.23;;;10.70;99.90;;;;;;5050131;28;20231;-70
2021/12/31 12:51:42;;;;;;;33.45;23.95;;;10.80;99.90;;;;;;5047006;28;20217;-70
2021/12/31 12:54:32;;;;;;;31.55;22.92;;;10.70;99.90;;;;;;5032485;28;20236;-72
2021/12/31 12:57:24;;;;;;;30.23;22.15;;;10.70;99.90;;;;;;5033676;28;21003;-73
2021/12/31 13:00:14;;;;;;;34.25;23.15;;;10.70;99.90;;;;;;5037097;28;20224;-73
2021/12/31 13:03:09;;;;;;;33.45;22.73;;;10.70;99.90;;;;;;5034688;28;20224;-74
2021/12/31 13:06:04;;;;;;;28.73;21.85;;;10.70;99.90;;;;;;5051769;28;20220;-71
2021/12/31 13:09:03;;;;;;;31.13;21.05;;;10.70;99.90;;;;;;5053532;28;20288;-72
2021/12/31 13:11:59;;;;;;;38.08;22.40;;;10.80;99.90;;;;;;5021578;28;20219;-74
2021/12/31 13:14:48;;;;;;;33.67;22.67;;;10.80;99.90;;;;;;5036809;28;20224;-75
2021/12/31 13:17:39;;;;;;;34.08;22.95;;;10.80;99.90;;;;;;5033802;28;20700;-71
2021/12/31 13:20:29;;;;;;;27.63;21.30;;;10.70;99.90;;;;;;5047299;28;20244;-70
2021/12/31 13:23:19;;;;;;;33.72;25.38;;;10.80;99.90;;;;;;5036619;28;20319;-73
2021/12/31 13:26:19;;;;;;;29.80;20.58;;;10.80;99.90;;;;;;5052454;28;20233;-73
2021/12/31 13:29:09;;;;;;;27.70;19.88;;;10.80;99.90;;;;;;5054551;28;20224;-74
2021/12/31 13:32:06;;;;;;;27.60;20.02;;;10.80;99.90;;;;;;5054684;28;20314;-73
2021/12/31 13:34:54;;;;;;;27.45;19.38;;;10.80;99.90;;;;;;5052895;28;20878;-75
2021/12/31 13:37:47;;;;;;;24.50;20.25;;;10.80;99.90;;;;;;5054133;28;20225;-73
2021/12/31 13:40:36;;;;;;;29.23;19.52;;;10.80;99.90;;;;;;5039074;28;20228;-73
2021/12/31 13:43:25;;;;;;;27.63;20.17;;;10.90;99.90;;;;;;5037526;28;20229;-74
2021/12/31 13:46:19;;;;;;;24.77;19.83;;;10.80;99.90;;;;;;5056857;28;21099;-73
2021/12/31 13:49:10;;;;;;;29.08;19.63;;;10.90;99.90;;;;;;5056752;28;20216;-72
2021/12/31 13:51:59;;;;;;;25.90;19.70;;;10.90;99.90;;;;;;5058464;28;20250;-73
2021/12/31 13:54:49;;;;;;;27.13;18.75;;;10.80;99.90;;;;;;5059504;28;20231;-73
2021/12/31 13:57:38;;;;;;;24.02;18.58;;;10.90;99.90;;;;;;5061285;28;20660;-71
2021/12/31 14:00:46;;;;;;;25.23;18.75;;;10.90;99.90;;;;;;5052339;28;20220;-72
2021/12/31 14:03:37;;;;;;;24.58;18.48;;;10.90;99.90;;;;;;5054654;28;20216;-73
2021/12/31 14:06:27;;;;;;;22.77;17.60;;;10.90;99.90;;;;;;5038504;28;20224;-73
2021/12/31 14:09:15;;;;;;;25.30;19.67;;;10.80;99.90;;;;;;5039579;28;20220;-72
2021/12/31 14:12:05;;;;;;;23.58;18.92;;;10.90;99.90;;;;;;5054963;28;20224;-73
2021/12/31 14:14:55;;;;;;;25.02;19.35;;;10.80;99.90;;;;;;5051469;28;20322;-73
2021/12/31 14:17:46;;;;;;;25.60;19.70;;;10.90;99.90;;;;;;5042025;28;20220;-70
2021/12/31 14:20:38;;;;;;;24.33;19.17;;;10.90;99.90;;;;;;5045051;28;20354;-74
2021/12/31 14:23:26;;;;;;;22.85;19.00;;;10.90;99.90;;;;;;5039093;28;20231;-73
2021/12/31 14:26:15;;;;;;;27.98;19.08;;;10.90;99.90;;;;;;5046135;28;21944;-72
2021/12/31 14:29:03;;;;;;;27.35;19.95;;;10.90;99.90;;;;;;5049459;28;21148;-76
2021/12/31 14:31:52;;;;;;;27.65;19.65;;;10.80;99.90;;;;;;5052985;28;20911;-77
2021/12/31 14:34:41;;;;;;;26.58;19.00;;;10.80;99.90;;;;;;5054595;28;20247;-76
2021/12/31 14:37:35;;;;;;;24.38;19.73;;;10.90;99.90;;;;;;5051070;28;20316;-73